sensor_id;sensor_type;location;lat;lon;timestamp;pressure;altitude;pressure_sealevel;temperature;humidity
10462;BME280;5278;42.656;23.374;2022-11-22T00:00:23;94112.19;;;6.96;88.49
10462;BME280;5278;42.656;23.374;2022-11-22T00:02:52;94119.28;;;7.02;87.96
10462;BME280;5278;42.656;23.374;2022-11-22T00:05:19;94117.16;;;7.06;87.99
10462;BME280;5278;42.656;23.374;2022-11-22T00:07:46;94109.25;;;7.07;87.93
10462;BME280;5278;42.656;23.374;2022-11-22T00:10:15;94110.34;;;7.13;87.64
10462;BME280;5278;42.656;23.374;2022-11-22T00:12:42;94108.41;;;7.15;87.11
10462;BME280;5278;42.656;23.374;2022-11-22T00:15:10;94110.97;;;7.23;86.79
10462;BME280;5278;42.656;23.374;2022-11-22T00:17:37;94074.09;;;6.98;87.01
10462;BME280;5278;42.656;23.374;2022-11-22T00:20:06;94101.50;;;7.07;87.38
10462;BME280;5278;42.656;23.374;2022-11-22T00:22:35;94108.41;;;7.15;87.45
10462;BME280;5278;42.656;23.374;2022-11-22T00:25:02;94115.16;;;7.24;87.26
10462;BME280;5278;42.656;23.374;2022-11-22T00:27:31;94120.63;;;7.29;86.92
10462;BME280;5278;42.656;23.374;2022-11-22T00:29:58;94127.75;;;7.27;86.66
10462;BME280;5278;42.656;23.374;2022-11-22T00:32:25;94114.66;;;7.28;86.70
10462;BME280;5278;42.656;23.374;2022-11-22T00:34:51;94119.38;;;7.25;86.73
10462;BME280;5278;42.656;23.374;2022-11-22T00:37:18;94113.25;;;7.18;87.26
10462;BME280;5278;42.656;23.374;2022-11-22T00:39:45;94117.44;;;7.27;87.16
10462;BME280;5278;42.656;23.374;2022-11-22T00:42:12;94117.13;;;7.22;87.08
10462;BME280;5278;42.656;23.374;2022-11-22T00:44:40;94119.38;;;7.25;87.32
10462;BME280;5278;42.656;23.374;2022-11-22T00:47:07;94117.09;;;7.30;86.77
10462;BME280;5278;42.656;23.374;2022-11-22T00:49:34;94117.09;;;7.30;86.71
10462;BME280;5278;42.656;23.374;2022-11-22T00:52:01;94125.94;;;7.35;86.89
10462;BME280;5278;42.656;23.374;2022-11-22T00:54:28;94128.38;;;7.37;86.84
10462;BME280;5278;42.656;23.374;2022-11-22T00:56:55;94117.91;;;7.30;87.03
10462;BME280;5278;42.656;23.374;2022-11-22T00:59:22;94123.88;;;7.23;87.05
10462;BME280;5278;42.656;23.374;2022-11-22T01:01:50;94123.06;;;7.22;87.06
10462;BME280;5278;42.656;23.374;2022-11-22T01:04:17;94123.25;;;7.21;87.29
10462;BME280;5278;42.656;23.374;2022-11-22T01:06:44;94120.47;;;7.22;86.71
10462;BME280;5278;42.656;23.374;2022-11-22T01:09:16;94113.44;;;7.08;87.40
10462;BME280;5278;42.656;23.374;2022-11-22T01:11:43;94118.59;;;7.08;87.33
10462;BME280;5278;42.656;23.374;2022-11-22T01:14:10;94111.84;;;7.07;87.42
10462;BME280;5278;42.656;23.374;2022-11-22T01:16:37;94112.50;;;7.01;87.95
10462;BME280;5278;42.656;23.374;2022-11-22T01:19:06;94116.50;;;7.04;87.81
10462;BME280;5278;42.656;23.374;2022-11-22T01:21:33;94110.53;;;7.03;87.80
10462;BME280;5278;42.656;23.374;2022-11-22T01:23:59;94107.84;;;6.97;88.53
10462;BME280;5278;42.656;23.374;2022-11-22T01:26:26;94104.59;;;6.95;88.60
10462;BME280;5278;42.656;23.374;2022-11-22T01:28:53;94105.09;;;6.90;88.83
10462;BME280;5278;42.656;23.374;2022-11-22T01:31:20;94107.50;;;7.00;88.66
10462;BME280;5278;42.656;23.374;2022-11-22T01:33:47;94104.75;;;7.01;88.95
10462;BME280;5278;42.656;23.374;2022-11-22T01:36:15;94111.22;;;6.97;89.15
10462;BME280;5278;42.656;23.374;2022-11-22T01:38:42;94103.13;;;7.00;89.04
10462;BME280;5278;42.656;23.374;2022-11-22T01:41:09;94100.72;;;6.99;88.76
10462;BME280;5278;42.656;23.374;2022-11-22T01:43:36;94107.84;;;6.97;88.70
10462;BME280;5278;42.656;23.374;2022-11-22T01:46:05;94087.53;;;6.85;88.38
10462;BME280;5278;42.656;23.374;2022-11-22T01:48:47;94096.03;;;6.94;88.50
10462;BME280;5278;42.656;23.374;2022-11-22T01:51:23;94103.00;;;6.85;89.22
10462;BME280;5278;42.656;23.374;2022-11-22T01:53:51;94107.84;;;6.88;88.79
10462;BME280;5278;42.656;23.374;2022-11-22T01:56:20;94106.56;;;6.84;88.95
10462;BME280;5278;42.656;23.374;2022-11-22T01:58:50;94098.00;;;6.84;89.01
10462;BME280;5278;42.656;23.374;2022-11-22T02:01:19;94095.31;;;6.77;89.33
10462;BME280;5278;42.656;23.374;2022-11-22T02:03:47;94094.97;;;6.80;89.17
10462;BME280;5278;42.656;23.374;2022-11-22T02:06:18;94095.75;;;6.73;89.23
10462;BME280;5278;42.656;23.374;2022-11-22T02:08:51;94098.84;;;6.76;88.98
10462;BME280;5278;42.656;23.374;2022-11-22T02:11:22;94099.16;;;6.73;89.19
10462;BME280;5278;42.656;23.374;2022-11-22T02:13:50;94108.66;;;6.73;89.19
10462;BME280;5278;42.656;23.374;2022-11-22T02:16:18;94114.47;;;6.75;88.99
10462;BME280;5278;42.656;23.374;2022-11-22T02:18:45;94113.06;;;6.72;88.73
10462;BME280;5278;42.656;23.374;2022-11-22T02:21:12;94118.22;;;6.72;88.70
10462;BME280;5278;42.656;23.374;2022-11-22T02:23:58;94116.44;;;6.65;88.81
10462;BME280;5278;42.656;23.374;2022-11-22T02:26:31;94119.34;;;6.62;88.95
10462;BME280;5278;42.656;23.374;2022-11-22T02:29:01;94114.34;;;6.60;89.02
10462;BME280;5278;42.656;23.374;2022-11-22T02:31:35;94106.94;;;6.57;89.23
10462;BME280;5278;42.656;23.374;2022-11-22T02:34:02;94102.75;;;6.56;89.55
10462;BME280;5278;42.656;23.374;2022-11-22T02:36:35;94112.25;;;6.56;89.73
10462;BME280;5278;42.656;23.374;2022-11-22T02:39:05;94123.69;;;6.53;89.62
10462;BME280;5278;42.656;23.374;2022-11-22T02:41:34;94113.72;;;6.50;89.88
10462;BME280;5278;42.656;23.374;2022-11-22T02:44:02;94113.72;;;6.42;90.16
10462;BME280;5278;42.656;23.374;2022-11-22T02:46:31;94103.06;;;6.45;90.59
10462;BME280;5278;42.656;23.374;2022-11-22T02:48:59;94095.00;;;6.48;90.74
10462;BME280;5278;42.656;23.374;2022-11-22T02:51:26;94086.78;;;6.44;90.58
10462;BME280;5278;42.656;23.374;2022-11-22T02:53:53;94089.84;;;6.48;90.59
10462;BME280;5278;42.656;23.374;2022-11-22T02:56:21;94091.13;;;6.44;90.43
10462;BME280;5278;42.656;23.374;2022-11-22T02:58:49;94086.31;;;6.41;90.94
10462;BME280;5278;42.656;23.374;2022-11-22T03:01:16;94089.69;;;6.33;90.95
10462;BME280;5278;42.656;23.374;2022-11-22T03:03:43;94089.69;;;6.33;90.82
10462;BME280;5278;42.656;23.374;2022-11-22T03:06:09;94092.13;;;6.27;90.92
10462;BME280;5278;42.656;23.374;2022-11-22T03:08:36;94088.88;;;6.33;90.75
10462;BME280;5278;42.656;23.374;2022-11-22T03:11:04;94087.78;;;6.27;90.88
10462;BME280;5278;42.656;23.374;2022-11-22T03:13:31;94087.59;;;6.21;91.24
10462;BME280;5278;42.656;23.374;2022-11-22T03:15:59;94083.25;;;6.21;91.24
10462;BME280;5278;42.656;23.374;2022-11-22T03:18:26;94084.69;;;6.16;91.43
10462;BME280;5278;42.656;23.374;2022-11-22T03:20:52;94093.56;;;6.13;91.59
10462;BME280;5278;42.656;23.374;2022-11-22T03:23:19;94083.09;;;6.15;91.64
10462;BME280;5278;42.656;23.374;2022-11-22T03:25:46;94098.88;;;6.12;91.52
10462;BME280;5278;42.656;23.374;2022-11-22T03:28:13;94085.03;;;6.13;91.54
10462;BME280;5278;42.656;23.374;2022-11-22T03:30:40;94056.50;;;5.90;91.40
10462;BME280;5278;42.656;23.374;2022-11-22T03:33:11;94088.25;;;6.15;91.56
10462;BME280;5278;42.656;23.374;2022-11-22T03:35:38;94086.63;;;6.14;91.37
10462;BME280;5278;42.656;23.374;2022-11-22T03:38:05;94065.06;;;6.07;91.28
10462;BME280;5278;42.656;23.374;2022-11-22T03:40:32;94083.25;;;6.13;91.23
10462;BME280;5278;42.656;23.374;2022-11-22T03:42:59;94086.00;;;6.20;91.20
10462;BME280;5278;42.656;23.374;2022-11-22T03:45:26;94088.56;;;6.12;91.28
10462;BME280;5278;42.656;23.374;2022-11-22T03:47:54;94089.06;;;6.15;91.43
10462;BME280;5278;42.656;23.374;2022-11-22T03:50:23;94094.84;;;6.09;91.51
10462;BME280;5278;42.656;23.374;2022-11-22T03:52:50;94091.47;;;6.09;91.48
10462;BME280;5278;42.656;23.374;2022-11-22T03:55:16;94102.88;;;5.98;92.12
10462;BME280;5278;42.656;23.374;2022-11-22T03:57:43;94092.22;;;5.85;92.09
10462;BME280;5278;42.656;23.374;2022-11-22T04:00:13;94103.06;;;5.96;92.35
10462;BME280;5278;42.656;23.374;2022-11-22T04:02:40;94112.41;;;5.97;92.77
10462;BME280;5278;42.656;23.374;2022-11-22T04:05:07;94100.50;;;5.96;92.70
10462;BME280;5278;42.656;23.374;2022-11-22T04:07:36;94104.16;;;5.94;92.80
10462;BME280;5278;42.656;23.374;2022-11-22T04:10:03;94105.31;;;5.99;92.32
10462;BME280;5278;42.656;23.374;2022-11-22T04:12:30;94111.59;;;5.97;92.18
10462;BME280;5278;42.656;23.374;2022-11-22T04:14:57;94099.13;;;8.21;100.00
10462;BME280;5278;42.656;23.374;2022-11-22T04:17:32;94094.72;;;10.06;100.00
10462;BME280;5278;42.656;23.374;2022-11-22T04:20:12;94077.59;;;11.09;88.05
10462;BME280;5278;42.656;23.374;2022-11-22T04:22:59;94101.34;;;12.42;74.72
10462;BME280;5278;42.656;23.374;2022-11-22T04:25:27;94099.69;;;13.47;76.38
10462;BME280;5278;42.656;23.374;2022-11-22T04:27:53;94093.53;;;12.75;62.87
10462;BME280;5278;42.656;23.374;2022-11-22T04:30:20;94105.63;;;11.89;62.97
10462;BME280;5278;42.656;23.374;2022-11-22T04:33:07;94114.19;;;10.80;65.88
10462;BME280;5278;42.656;23.374;2022-11-22T04:35:33;94119.91;;;10.12;68.70
10462;BME280;5278;42.656;23.374;2022-11-22T04:38:01;94120.84;;;9.54;71.00
10462;BME280;5278;42.656;23.374;2022-11-22T04:40:28;94124.59;;;8.92;73.51
10462;BME280;5278;42.656;23.374;2022-11-22T04:42:55;94116.16;;;8.38;76.17
10462;BME280;5278;42.656;23.374;2022-11-22T04:45:40;94128.38;;;7.99;78.37
10462;BME280;5278;42.656;23.374;2022-11-22T04:48:06;94129.84;;;7.70;80.24
10462;BME280;5278;42.656;23.374;2022-11-22T04:50:34;94152.25;;;7.39;81.84
10462;BME280;5278;42.656;23.374;2022-11-22T04:53:20;94150.56;;;7.15;83.97
10462;BME280;5278;42.656;23.374;2022-11-22T04:55:47;94155.13;;;6.89;85.38
10462;BME280;5278;42.656;23.374;2022-11-22T04:58:14;94154.97;;;6.74;86.36
10462;BME280;5278;42.656;23.374;2022-11-22T05:00:42;94149.97;;;6.48;87.40
10462;BME280;5278;42.656;23.374;2022-11-22T05:03:09;94152.72;;;6.39;88.26
10462;BME280;5278;42.656;23.374;2022-11-22T05:05:38;94163.22;;;6.37;89.17
10462;BME280;5278;42.656;23.374;2022-11-22T05:08:06;94170.13;;;6.21;90.12
10462;BME280;5278;42.656;23.374;2022-11-22T05:10:35;94159.81;;;6.13;90.61
10462;BME280;5278;42.656;23.374;2022-11-22T05:13:16;94149.94;;;6.08;91.61
10462;BME280;5278;42.656;23.374;2022-11-22T05:15:43;94148.50;;;6.05;91.60
10462;BME280;5278;42.656;23.374;2022-11-22T05:18:10;94149.78;;;6.01;91.84
10462;BME280;5278;42.656;23.374;2022-11-22T05:20:37;94150.41;;;5.95;92.16
10462;BME280;5278;42.656;23.374;2022-11-22T05:23:03;94165.88;;;5.87;92.88
10462;BME280;5278;42.656;23.374;2022-11-22T05:25:49;94160.97;;;5.76;93.69
10462;BME280;5278;42.656;23.374;2022-11-22T05:28:16;94166.28;;;5.75;93.16
10462;BME280;5278;42.656;23.374;2022-11-22T05:30:43;94164.16;;;5.62;93.69
10462;BME280;5278;42.656;23.374;2022-11-22T05:33:10;94159.00;;;5.62;93.88
10462;BME280;5278;42.656;23.374;2022-11-22T05:35:37;94159.81;;;5.62;94.18
10462;BME280;5278;42.656;23.374;2022-11-22T05:38:04;94166.06;;;5.60;94.10
10462;BME280;5278;42.656;23.374;2022-11-22T05:40:30;94159.63;;;5.64;94.29
10462;BME280;5278;42.656;23.374;2022-11-22T05:42:59;94160.94;;;5.68;94.19
10462;BME280;5278;42.656;23.374;2022-11-22T05:45:25;94154.34;;;5.74;94.44
10462;BME280;5278;42.656;23.374;2022-11-22T05:47:52;94160.66;;;5.79;94.37
10462;BME280;5278;42.656;23.374;2022-11-22T05:50:19;94175.50;;;5.85;93.87
10462;BME280;5278;42.656;23.374;2022-11-22T05:52:46;94158.16;;;5.87;94.04
10462;BME280;5278;42.656;23.374;2022-11-22T05:55:13;94168.47;;;5.87;93.28
10462;BME280;5278;42.656;23.374;2022-11-22T05:57:40;94156.53;;;5.94;93.48
10462;BME280;5278;42.656;23.374;2022-11-22T06:00:10;94177.06;;;6.44;93.68
10462;BME280;5278;42.656;23.374;2022-11-22T06:02:37;94167.97;;;7.13;91.27
10462;BME280;5278;42.656;23.374;2022-11-22T06:05:04;94165.81;;;8.11;85.87
10462;BME280;5278;42.656;23.374;2022-11-22T06:07:31;94160.53;;;9.10;80.02
10462;BME280;5278;42.656;23.374;2022-11-22T06:09:58;94162.06;;;10.14;74.97
10462;BME280;5278;42.656;23.374;2022-11-22T06:12:25;94162.91;;;11.55;68.01
10462;BME280;5278;42.656;23.374;2022-11-22T06:14:52;94145.28;;;12.72;62.25
10462;BME280;5278;42.656;23.374;2022-11-22T06:17:20;94146.63;;;13.66;57.58
10462;BME280;5278;42.656;23.374;2022-11-22T06:19:47;94145.78;;;14.37;53.69
10462;BME280;5278;42.656;23.374;2022-11-22T06:22:14;94148.66;;;14.91;52.50
10462;BME280;5278;42.656;23.374;2022-11-22T06:24:41;94148.38;;;15.49;47.78
10462;BME280;5278;42.656;23.374;2022-11-22T06:27:08;94141.22;;;15.81;46.01
10462;BME280;5278;42.656;23.374;2022-11-22T06:29:35;94139.91;;;16.08;44.75
10462;BME280;5278;42.656;23.374;2022-11-22T06:32:01;94138.16;;;16.02;44.88
10462;BME280;5278;42.656;23.374;2022-11-22T06:34:35;94136.00;;;16.29;44.39
10462;BME280;5278;42.656;23.374;2022-11-22T06:37:02;94121.63;;;16.02;44.40
10462;BME280;5278;42.656;23.374;2022-11-22T06:39:29;94155.41;;;16.40;43.89
10462;BME280;5278;42.656;23.374;2022-11-22T06:41:56;94146.81;;;16.51;43.40
10462;BME280;5278;42.656;23.374;2022-11-22T06:44:22;94147.97;;;16.55;43.79
10462;BME280;5278;42.656;23.374;2022-11-22T06:46:49;94139.78;;;16.33;44.25
10462;BME280;5278;42.656;23.374;2022-11-22T06:49:16;94156.88;;;15.87;45.34
10462;BME280;5278;42.656;23.374;2022-11-22T06:51:45;94171.47;;;15.77;46.07
10462;BME280;5278;42.656;23.374;2022-11-22T06:54:11;94167.81;;;15.35;46.82
10462;BME280;5278;42.656;23.374;2022-11-22T06:56:39;94157.19;;;15.05;47.57
10462;BME280;5278;42.656;23.374;2022-11-22T06:59:07;94161.72;;;14.91;48.42
10462;BME280;5278;42.656;23.374;2022-11-22T07:01:35;94170.72;;;15.02;48.71
10462;BME280;5278;42.656;23.374;2022-11-22T07:04:02;94163.47;;;14.73;49.53
10462;BME280;5278;42.656;23.374;2022-11-22T07:06:31;94160.69;;;14.68;49.06
10462;BME280;5278;42.656;23.374;2022-11-22T07:09:01;94163.16;;;14.05;50.69
10462;BME280;5278;42.656;23.374;2022-11-22T07:11:29;94167.53;;;13.47;52.42
10462;BME280;5278;42.656;23.374;2022-11-22T07:13:58;94180.34;;;12.76;54.56
10462;BME280;5278;42.656;23.374;2022-11-22T07:16:27;94165.47;;;12.43;55.96
10462;BME280;5278;42.656;23.374;2022-11-22T07:18:54;94172.50;;;11.89;58.21
10462;BME280;5278;42.656;23.374;2022-11-22T07:21:21;94166.19;;;11.42;60.23
10462;BME280;5278;42.656;23.374;2022-11-22T07:23:50;94162.44;;;11.17;62.28
10462;BME280;5278;42.656;23.374;2022-11-22T07:26:20;94171.59;;;10.85;64.46
10462;BME280;5278;42.656;23.374;2022-11-22T07:28:48;94154.75;;;10.81;64.86
10462;BME280;5278;42.656;23.374;2022-11-22T07:31:16;94169.16;;;10.56;66.04
10462;BME280;5278;42.656;23.374;2022-11-22T07:33:43;94161.38;;;10.62;67.88
10462;BME280;5278;42.656;23.374;2022-11-22T07:36:12;94160.16;;;11.07;66.63
10462;BME280;5278;42.656;23.374;2022-11-22T07:38:39;94150.75;;;11.69;64.88
10462;BME280;5278;42.656;23.374;2022-11-22T07:41:07;94132.19;;;12.39;60.89
10462;BME280;5278;42.656;23.374;2022-11-22T07:43:36;94133.03;;;13.45;58.08
10462;BME280;5278;42.656;23.374;2022-11-22T07:46:04;94117.00;;;14.43;52.87
10462;BME280;5278;42.656;23.374;2022-11-22T07:48:33;94125.25;;;15.21;48.57
10462;BME280;5278;42.656;23.374;2022-11-22T07:51:04;94101.63;;;15.71;47.52
10462;BME280;5278;42.656;23.374;2022-11-22T07:53:32;94110.19;;;16.74;45.13
10462;BME280;5278;42.656;23.374;2022-11-22T07:56:00;94126.25;;;17.31;43.11
10462;BME280;5278;42.656;23.374;2022-11-22T07:58:28;94139.81;;;17.39;42.37
10462;BME280;5278;42.656;23.374;2022-11-22T08:00:56;94146.91;;;16.74;43.51
10462;BME280;5278;42.656;23.374;2022-11-22T08:03:23;94135.53;;;16.02;45.15
10462;BME280;5278;42.656;23.374;2022-11-22T08:05:57;94134.38;;;15.98;46.63
10462;BME280;5278;42.656;23.374;2022-11-22T08:08:24;94135.91;;;15.87;46.58
10462;BME280;5278;42.656;23.374;2022-11-22T08:10:51;94146.25;;;15.82;46.86
10462;BME280;5278;42.656;23.374;2022-11-22T08:13:19;94140.25;;;16.60;45.43
10462;BME280;5278;42.656;23.374;2022-11-22T08:15:45;94115.28;;;17.57;42.71
10462;BME280;5278;42.656;23.374;2022-11-22T08:18:14;94108.41;;;18.59;40.88
10462;BME280;5278;42.656;23.374;2022-11-22T08:20:42;94118.03;;;19.65;38.32
10462;BME280;5278;42.656;23.374;2022-11-22T08:23:09;94111.88;;;19.98;36.83
10462;BME280;5278;42.656;23.374;2022-11-22T08:25:36;94120.31;;;19.78;37.60
10462;BME280;5278;42.656;23.374;2022-11-22T08:28:03;94113.72;;;20.19;36.84
10462;BME280;5278;42.656;23.374;2022-11-22T08:30:29;94102.50;;;20.51;36.27
10462;BME280;5278;42.656;23.374;2022-11-22T08:32:56;94108.38;;;19.93;36.62
10462;BME280;5278;42.656;23.374;2022-11-22T08:35:25;94114.69;;;18.58;39.26
10462;BME280;5278;42.656;23.374;2022-11-22T08:37:54;94121.78;;;17.31;41.76
10462;BME280;5278;42.656;23.374;2022-11-22T08:40:21;94097.56;;;16.23;44.87
10462;BME280;5278;42.656;23.374;2022-11-22T08:42:48;94085.00;;;15.22;48.08
10462;BME280;5278;42.656;23.374;2022-11-22T08:45:15;94081.47;;;14.29;51.57
10462;BME280;5278;42.656;23.374;2022-11-22T08:47:42;94089.34;;;13.78;54.20
10462;BME280;5278;42.656;23.374;2022-11-22T08:50:09;94093.72;;;13.26;56.55
10462;BME280;5278;42.656;23.374;2022-11-22T08:52:38;94085.72;;;12.88;58.96
10462;BME280;5278;42.656;23.374;2022-11-22T08:55:05;94086.31;;;12.51;59.80
10462;BME280;5278;42.656;23.374;2022-11-22T08:57:33;94095.22;;;11.96;61.89
10462;BME280;5278;42.656;23.374;2022-11-22T09:00:00;94089.84;;;11.50;64.65
10462;BME280;5278;42.656;23.374;2022-11-22T09:02:27;94081.59;;;11.05;66.77
10462;BME280;5278;42.656;23.374;2022-11-22T09:04:53;94082.53;;;10.70;68.95
10462;BME280;5278;42.656;23.374;2022-11-22T09:07:20;94089.56;;;10.48;70.63
10462;BME280;5278;42.656;23.374;2022-11-22T09:09:49;94091.16;;;10.28;71.52
10462;BME280;5278;42.656;23.374;2022-11-22T09:12:15;94082.31;;;10.22;71.75
10462;BME280;5278;42.656;23.374;2022-11-22T09:14:42;94095.06;;;10.17;72.48
10462;BME280;5278;42.656;23.374;2022-11-22T09:17:12;94077.59;;;10.11;72.67
10462;BME280;5278;42.656;23.374;2022-11-22T09:19:39;94081.94;;;10.04;72.73
10462;BME280;5278;42.656;23.374;2022-11-22T09:22:06;94081.84;;;9.98;73.48
10462;BME280;5278;42.656;23.374;2022-11-22T09:24:33;94076.81;;;10.11;73.19
10462;BME280;5278;42.656;23.374;2022-11-22T09:27:01;94077.69;;;10.18;73.16
10462;BME280;5278;42.656;23.374;2022-11-22T09:29:28;94075.03;;;10.32;73.90
10462;BME280;5278;42.656;23.374;2022-11-22T09:31:55;94084.66;;;10.60;72.16
10462;BME280;5278;42.656;23.374;2022-11-22T09:34:22;94078.34;;;10.69;70.10
10462;BME280;5278;42.656;23.374;2022-11-22T09:36:49;94055.78;;;10.76;69.10
10462;BME280;5278;42.656;23.374;2022-11-22T09:39:16;94049.09;;;10.88;69.50
10462;BME280;5278;42.656;23.374;2022-11-22T09:45:03;94054.44;;;13.15;100.00
10462;BME280;5278;42.656;23.374;2022-11-22T09:47:40;94033.19;;;14.32;76.73
10462;BME280;5278;42.656;23.374;2022-11-22T09:50:17;94048.19;;;15.35;63.46
10462;BME280;5278;42.656;23.374;2022-11-22T09:52:51;94037.69;;;16.08;57.94
10462;BME280;5278;42.656;23.374;2022-11-22T09:55:22;94039.97;;;16.46;53.65
10462;BME280;5278;42.656;23.374;2022-11-22T09:58:01;94044.25;;;16.70;51.36
10462;BME280;5278;42.656;23.374;2022-11-22T10:00:32;94023.28;;;17.05;49.20
10462;BME280;5278;42.656;23.374;2022-11-22T10:03:06;94019.03;;;17.28;47.45
10462;BME280;5278;42.656;23.374;2022-11-22T10:05:45;94017.56;;;17.32;47.38
10462;BME280;5278;42.656;23.374;2022-11-22T10:08:23;94017.41;;;17.50;45.35
10462;BME280;5278;42.656;23.374;2022-11-22T10:10:55;94015.53;;;16.87;44.52
10462;BME280;5278;42.656;23.374;2022-11-22T10:13:29;93970.88;;;15.69;46.36
10462;BME280;5278;42.656;23.374;2022-11-22T10:16:02;94010.75;;;15.17;48.58
10462;BME280;5278;42.656;23.374;2022-11-22T10:18:38;93998.25;;;14.57;51.06
10462;BME280;5278;42.656;23.374;2022-11-22T10:21:09;94015.41;;;14.15;53.10
10462;BME280;5278;42.656;23.374;2022-11-22T10:23:38;93997.69;;;13.93;53.72
10462;BME280;5278;42.656;23.374;2022-11-22T10:26:17;93991.59;;;13.67;55.23
10462;BME280;5278;42.656;23.374;2022-11-22T10:28:52;93977.69;;;13.35;56.78
10462;BME280;5278;42.656;23.374;2022-11-22T10:31:26;93981.38;;;13.08;58.88
10462;BME280;5278;42.656;23.374;2022-11-22T10:34:00;93974.19;;;12.97;60.13
10462;BME280;5278;42.656;23.374;2022-11-22T10:36:34;93983.25;;;12.94;60.53
10462;BME280;5278;42.656;23.374;2022-11-22T10:39:16;93970.63;;;12.72;61.09
10462;BME280;5278;42.656;23.374;2022-11-22T10:42:08;93971.44;;;12.72;62.27
10462;BME280;5278;42.656;23.374;2022-11-22T10:44:48;93971.28;;;12.54;62.93
10462;BME280;5278;42.656;23.374;2022-11-22T10:50:13;93963.50;;;12.34;62.94
10462;BME280;5278;42.656;23.374;2022-11-22T10:52:48;93961.50;;;12.30;64.03
10462;BME280;5278;42.656;23.374;2022-11-22T10:55:34;93953.06;;;12.21;64.04
10462;BME280;5278;42.656;23.374;2022-11-22T10:58:11;93957.88;;;12.18;64.75
10462;BME280;5278;42.656;23.374;2022-11-22T11:00:43;93949.25;;;12.17;65.50
10462;BME280;5278;42.656;23.374;2022-11-22T11:03:23;93955.47;;;12.10;64.65
10462;BME280;5278;42.656;23.374;2022-11-22T11:05:54;93963.06;;;11.91;65.15
10462;BME280;5278;42.656;23.374;2022-11-22T11:08:30;93961.06;;;11.87;65.73
10462;BME280;5278;42.656;23.374;2022-11-22T11:11:00;93939.63;;;11.91;66.40
10462;BME280;5278;42.656;23.374;2022-11-22T11:13:30;93949.47;;;11.89;65.77
10462;BME280;5278;42.656;23.374;2022-11-22T11:16:01;93951.03;;;11.77;65.39
10462;BME280;5278;42.656;23.374;2022-11-22T11:18:37;93957.81;;;11.72;65.81
10462;BME280;5278;42.656;23.374;2022-11-22T11:21:05;93950.16;;;11.57;67.28
10462;BME280;5278;42.656;23.374;2022-11-22T11:23:33;93946.56;;;11.58;67.81
10462;BME280;5278;42.656;23.374;2022-11-22T11:26:16;93952.38;;;11.60;68.91
10462;BME280;5278;42.656;23.374;2022-11-22T11:28:44;93946.16;;;11.61;69.06
10462;BME280;5278;42.656;23.374;2022-11-22T11:31:12;93950.16;;;11.57;69.42
10462;BME280;5278;42.656;23.374;2022-11-22T11:33:42;93944.97;;;11.57;69.17
10462;BME280;5278;42.656;23.374;2022-11-22T11:36:11;93946.34;;;11.53;69.14
10462;BME280;5278;42.656;23.374;2022-11-22T11:38:49;93928.34;;;11.45;69.37
10462;BME280;5278;42.656;23.374;2022-11-22T11:41:21;93931.09;;;11.37;69.41
10462;BME280;5278;42.656;23.374;2022-11-22T11:43:49;93924.13;;;11.31;69.01
10462;BME280;5278;42.656;23.374;2022-11-22T11:46:18;93921.09;;;11.20;69.61
10462;BME280;5278;42.656;23.374;2022-11-22T11:48:47;93929.25;;;11.17;70.02
10462;BME280;5278;42.656;23.374;2022-11-22T11:51:22;93909.63;;;11.08;69.64
10462;BME280;5278;42.656;23.374;2022-11-22T11:53:59;93916.00;;;11.06;70.23
10462;BME280;5278;42.656;23.374;2022-11-22T11:56:33;93912.78;;;10.91;70.45
10462;BME280;5278;42.656;23.374;2022-11-22T11:59:08;93889.94;;;10.79;71.71
10462;BME280;5278;42.656;23.374;2022-11-22T12:01:37;93906.88;;;10.69;72.74
10462;BME280;5278;42.656;23.374;2022-11-22T12:04:19;93921.03;;;10.60;73.99
10462;BME280;5278;42.656;23.374;2022-11-22T12:06:56;93896.97;;;10.45;74.58
10462;BME280;5278;42.656;23.374;2022-11-22T12:09:33;93913.16;;;10.47;74.65
10462;BME280;5278;42.656;23.374;2022-11-22T12:12:23;93915.75;;;10.47;75.59
10462;BME280;5278;42.656;23.374;2022-11-22T12:15:00;93900.03;;;10.20;77.77
10462;BME280;5278;42.656;23.374;2022-11-22T12:17:34;93892.44;;;10.19;79.36
10462;BME280;5278;42.656;23.374;2022-11-22T12:20:06;93882.31;;;10.30;81.17
10462;BME280;5278;42.656;23.374;2022-11-22T12:22:44;93879.25;;;10.20;82.21
10462;BME280;5278;42.656;23.374;2022-11-22T12:25:20;93879.44;;;9.91;82.74
10462;BME280;5278;42.656;23.374;2022-11-22T12:27:47;93874.66;;;9.94;82.62
10462;BME280;5278;42.656;23.374;2022-11-22T12:30:22;93866.69;;;9.96;83.13
10462;BME280;5278;42.656;23.374;2022-11-22T12:32:53;93860.47;;;9.90;83.39
10462;BME280;5278;42.656;23.374;2022-11-22T12:35:25;93861.13;;;9.99;84.44
10462;BME280;5278;42.656;23.374;2022-11-22T12:37:55;93862.97;;;10.05;85.14
10462;BME280;5278;42.656;23.374;2022-11-22T12:40:32;93856.81;;;10.13;85.60
10462;BME280;5278;42.656;23.374;2022-11-22T12:43:06;93867.28;;;10.19;85.64
10462;BME280;5278;42.656;23.374;2022-11-22T12:45:39;93874.31;;;10.25;86.98
10462;BME280;5278;42.656;23.374;2022-11-22T12:48:15;93863.91;;;10.25;87.14
10462;BME280;5278;42.656;23.374;2022-11-22T12:50:48;93867.34;;;10.32;87.24
10462;BME280;5278;42.656;23.374;2022-11-22T12:53:20;93858.97;;;10.30;86.94
10462;BME280;5278;42.656;23.374;2022-11-22T12:55:51;93852.00;;;10.38;88.31
10462;BME280;5278;42.656;23.374;2022-11-22T12:58:26;93839.41;;;10.41;89.09
10462;BME280;5278;42.656;23.374;2022-11-22T13:01:06;93850.59;;;10.35;88.77
10462;BME280;5278;42.656;23.374;2022-11-22T13:03:39;93857.00;;;10.39;88.62
10462;BME280;5278;42.656;23.374;2022-11-22T13:06:12;93854.22;;;10.47;88.37
10462;BME280;5278;42.656;23.374;2022-11-22T13:08:46;93826.78;;;10.31;87.95
10462;BME280;5278;42.656;23.374;2022-11-22T13:11:21;93859.06;;;10.57;87.40
10462;BME280;5278;42.656;23.374;2022-11-22T13:13:54;93851.94;;;10.65;87.11
10462;BME280;5278;42.656;23.374;2022-11-22T13:16:23;93852.53;;;10.67;86.22
10462;BME280;5278;42.656;23.374;2022-11-22T13:18:54;93840.75;;;10.71;86.23
10462;BME280;5278;42.656;23.374;2022-11-22T13:21:29;93833.53;;;10.67;86.65
10462;BME280;5278;42.656;23.374;2022-11-22T13:24:07;93836.75;;;10.69;87.55